Eger, Hungary
Current Conditions -  °F | °C
As of 5:45 PM on Thursday 30 Oct 2014 (Local Time) from LHSN Reporting Station
Broken Clouds Broken Clouds  
Wind Chill: 48°   Ceiling: 3300
Heat Index: 48°   Visibility: 5mi
Dew Point: 41°   Wind: 2mph
Humidity: 76%   Direction: 290°WNW
Pressure: 30.27"   Gusts: NA
Location:  47.9°N, 20.38°E
Report Text: LHSN 301545Z 29001MPS 8000 BKN033 09/05 Q1025 NOSIG RMK BLU
Loading
Personal Weather Stations






























Interactive Weather Map
Tropical Storm Tracking
New forecast layout! Learn more

10-Day Weather Forecast

Advertisements
Track Severe Weather on mobile